createdAt,value
2019-04-26T00:00:17.118Z,0.20
2019-04-26T00:01:16.956Z,0.20
2019-04-26T00:02:16.962Z,0.20
2019-04-26T00:03:16.957Z,0.20
2019-04-26T00:04:16.934Z,0.20
2019-04-26T00:05:16.916Z,0.30
2019-04-26T00:06:16.922Z,0.30
2019-04-26T00:07:16.893Z,0.30
2019-04-26T00:08:17.825Z,0.30
2019-04-26T00:09:17.867Z,0.30
2019-04-26T00:10:16.867Z,0.20
2019-04-26T00:11:16.860Z,0.30
2019-04-26T00:12:16.838Z,0.30
2019-04-26T00:13:16.835Z,0.20
2019-04-26T00:14:16.819Z,0.20
2019-04-26T00:15:16.819Z,0.30
2019-04-26T00:16:16.854Z,0.20
2019-04-26T00:17:17.542Z,0.50
2019-04-26T00:18:16.815Z,0.70
2019-04-26T00:19:16.951Z,0.20
2019-04-26T00:20:17.136Z,0.20
2019-04-26T00:21:16.741Z,0.30
2019-04-26T00:22:17.137Z,0.30
2019-04-26T00:23:16.712Z,0.30
2019-04-26T00:24:17.244Z,0.20
2019-04-26T00:25:16.702Z,0.30
2019-04-26T00:26:17.653Z,0.40
2019-04-26T00:27:16.909Z,0.40
2019-04-26T00:28:17.026Z,0.40
2019-04-26T00:29:16.872Z,0.20
2019-04-26T00:30:16.983Z,0.40
2019-04-26T00:31:17.203Z,0.20
2019-04-26T00:32:17.242Z,0.20
2019-04-26T00:33:17.289Z,0.40
2019-04-26T00:34:17.466Z,0.60
2019-04-26T00:35:16.580Z,0.60
2019-04-26T00:36:16.693Z,0.10
2019-04-26T00:37:16.571Z,0.30
2019-04-26T00:38:16.544Z,0.30
2019-04-26T00:39:16.551Z,0.20
2019-04-26T00:40:16.533Z,0.30
2019-04-26T00:41:16.517Z,0.30
2019-04-26T00:42:16.586Z,0.50
2019-04-26T00:43:16.492Z,0.40
2019-04-26T00:44:16.619Z,0.30
2019-04-26T00:45:16.765Z,0.20
2019-04-26T00:46:16.794Z,0.40
2019-04-26T00:47:16.965Z,0.10
2019-04-26T00:48:16.855Z,0.30
2019-04-26T00:49:17.086Z,0.30
2019-04-26T00:50:17.158Z,0.40
2019-04-26T00:51:17.273Z,0.30
2019-04-26T00:52:17.395Z,0.20
2019-04-26T00:53:17.515Z,0.40
2019-04-26T00:54:16.378Z,0.30
2019-04-26T00:55:16.711Z,0.30
2019-04-26T00:56:16.364Z,0.30
2019-04-26T00:57:16.337Z,0.20
2019-04-26T00:58:16.437Z,0.30
2019-04-26T00:59:16.485Z,0.30
2019-04-26T01:00:16.915Z,0.40
2019-04-26T01:01:16.525Z,0.30
2019-04-26T01:02:16.650Z,0.60
2019-04-26T01:03:16.664Z,0.30
2019-04-26T01:04:17.065Z,0.50
2019-04-26T01:05:17.070Z,0.40
2019-04-26T01:06:17.029Z,0.40
2019-04-26T01:07:16.954Z,0.20
2019-04-26T01:08:17.058Z,0.30
2019-04-26T01:09:17.372Z,0.30
2019-04-26T01:10:16.741Z,0.30
2019-04-26T01:11:16.745Z,0.20
2019-04-26T01:12:16.812Z,0.30
2019-04-26T01:13:16.445Z,0.30
2019-04-26T01:14:16.622Z,0.60
2019-04-26T01:15:18.803Z,0.50
2019-04-26T01:16:17.409Z,0.40
2019-04-26T01:17:17.185Z,0.30
2019-04-26T01:18:16.842Z,0.40
2019-04-26T01:19:17.069Z,0.40
2019-04-26T01:20:17.284Z,0.40
2019-04-26T01:21:17.157Z,0.30
2019-04-26T01:22:16.820Z,0.30
2019-04-26T01:23:17.377Z,0.20
2019-04-26T01:24:16.737Z,0.20
2019-04-26T01:25:17.512Z,0.20
2019-04-26T01:26:16.921Z,0.40
2019-04-26T01:27:17.110Z,0.50
2019-04-26T01:28:17.084Z,0.40
2019-04-26T01:29:15.974Z,0.30
2019-04-26T01:30:15.973Z,0.40
2019-04-26T01:31:15.978Z,0.30
2019-04-26T01:32:15.939Z,0.30
2019-04-26T01:33:15.929Z,0.40
2019-04-26T01:34:15.919Z,0.90
2019-04-26T01:35:15.904Z,0.30
2019-04-26T01:36:15.908Z,0.30
2019-04-26T01:37:15.898Z,0.50
2019-04-26T01:38:15.872Z,0.30
2019-04-26T01:39:15.865Z,0.40
2019-04-26T01:40:15.857Z,0.40
2019-04-26T01:41:15.851Z,0.50
2019-04-26T01:42:15.859Z,0.60
2019-04-26T01:43:15.816Z,0.20
2019-04-26T01:44:15.808Z,0.30
2019-04-26T01:45:15.795Z,0.40
2019-04-26T01:46:15.786Z,0.30
2019-04-26T01:47:15.804Z,0.30
2019-04-26T01:48:15.771Z,0.40
2019-04-26T01:49:15.749Z,0.30
2019-04-26T01:50:15.739Z,0.50
2019-04-26T01:51:15.729Z,0.30
2019-04-26T01:52:15.716Z,0.30
2019-04-26T01:53:15.716Z,0.30
2019-04-26T01:54:15.701Z,0.40
2019-04-26T01:55:15.682Z,0.40
2019-04-26T01:56:15.670Z,0.20
2019-04-26T01:57:15.659Z,0.30
2019-04-26T01:58:15.663Z,0.40
2019-04-26T01:59:15.639Z,0.60
2019-04-26T02:00:15.646Z,0.50
2019-04-26T02:01:15.616Z,0.50
2019-04-26T02:02:15.605Z,0.60
2019-04-26T02:03:15.617Z,0.30
2019-04-26T02:04:15.581Z,0.50
2019-04-26T02:05:15.570Z,0.30
2019-04-26T02:06:24.988Z,0.30
2019-04-26T02:07:16.547Z,0.30
2019-04-26T02:08:15.539Z,0.50
2019-04-26T02:09:15.540Z,0.90
2019-04-26T02:10:15.582Z,0.40
2019-04-26T02:11:15.502Z,0.40
2019-04-26T02:12:15.507Z,0.30
2019-04-26T02:13:15.484Z,0.60
2019-04-26T02:14:15.472Z,0.30
2019-04-26T02:15:15.474Z,0.60
2019-04-26T02:16:15.450Z,0.30
2019-04-26T02:17:15.439Z,0.30
2019-04-26T02:18:15.436Z,0.30
2019-04-26T02:19:15.415Z,0.50
2019-04-26T02:20:15.416Z,0.30
2019-04-26T02:21:15.437Z,0.50
2019-04-26T02:22:15.383Z,0.50
2019-04-26T02:23:15.372Z,0.30
2019-04-26T02:24:15.371Z,0.50
2019-04-26T02:25:15.370Z,0.20
2019-04-26T02:26:15.338Z,0.40
2019-04-26T02:27:15.326Z,0.20
2019-04-26T02:28:15.332Z,0.30
2019-04-26T02:29:15.303Z,0.40
2019-04-26T02:30:15.308Z,0.50
2019-04-26T02:31:15.311Z,0.30
2019-04-26T02:32:15.295Z,0.30
2019-04-26T02:33:15.262Z,0.30
2019-04-26T02:34:15.250Z,0.20
2019-04-26T02:35:15.237Z,0.50
2019-04-26T02:36:15.243Z,0.30
2019-04-26T02:37:15.228Z,0.40
2019-04-26T02:38:15.203Z,0.30
2019-04-26T02:39:15.200Z,0.40
2019-04-26T02:40:15.179Z,0.30
2019-04-26T02:41:15.174Z,0.20
2019-04-26T02:42:15.207Z,0.30
2019-04-26T02:43:15.148Z,0.30
2019-04-26T02:44:15.137Z,0.40
2019-04-26T02:45:15.124Z,0.40
2019-04-26T02:46:15.129Z,0.30
2019-04-26T02:47:24.110Z,0.40
2019-04-26T02:48:15.101Z,0.30
2019-04-26T02:49:15.088Z,0.40
2019-04-26T02:50:15.082Z,0.40
2019-04-26T02:51:15.058Z,0.30
2019-04-26T02:52:15.055Z,0.30
2019-04-26T02:53:15.087Z,0.40
2019-04-26T02:54:15.042Z,0.40
2019-04-26T02:55:15.016Z,0.30
2019-04-26T02:56:15.006Z,0.50
2019-04-26T02:57:15.001Z,0.30
2019-04-26T02:58:14.981Z,0.40
2019-04-26T02:59:15.016Z,0.30
2019-04-26T03:00:14.963Z,0.20
2019-04-26T03:01:14.958Z,0.50
2019-04-26T03:02:14.940Z,0.30
2019-04-26T03:03:14.938Z,0.40
2019-04-26T03:04:14.912Z,0.50
2019-04-26T03:05:14.919Z,0.40
2019-04-26T03:06:14.891Z,0.20
2019-04-26T03:07:14.895Z,0.40
2019-04-26T03:08:14.893Z,0.60
2019-04-26T03:09:14.856Z,0.30
2019-04-26T03:10:14.868Z,0.30
2019-04-26T03:11:17.309Z,0.70
2019-04-26T03:12:14.821Z,0.40
2019-04-26T03:13:14.863Z,0.40
2019-04-26T03:14:14.824Z,0.50
2019-04-26T03:15:14.817Z,0.40
2019-04-26T03:16:14.784Z,0.40
2019-04-26T03:17:14.772Z,0.40
2019-04-26T03:18:14.759Z,0.50
2019-04-26T03:19:14.772Z,0.50
2019-04-26T03:20:14.773Z,0.50
2019-04-26T03:21:14.733Z,0.40
2019-04-26T03:22:14.721Z,0.40
2019-04-26T03:23:14.707Z,0.50
2019-04-26T03:24:14.689Z,0.60
2019-04-26T03:25:14.684Z,0.40
2019-04-26T03:26:14.724Z,0.30
2019-04-26T03:27:14.655Z,0.50
2019-04-26T03:28:14.650Z,0.60
2019-04-26T03:29:14.658Z,0.50
2019-04-26T03:30:21.485Z,0.60
2019-04-26T03:31:15.655Z,0.50
2019-04-26T03:32:16.647Z,0.50
2019-04-26T03:33:14.734Z,0.40
2019-04-26T03:34:14.856Z,0.60
2019-04-26T03:35:14.564Z,0.30
2019-04-26T03:36:14.620Z,0.30
2019-04-26T03:37:21.053Z,0.40
2019-04-26T03:38:15.539Z,0.50
2019-04-26T03:39:14.523Z,0.50
2019-04-26T03:40:14.522Z,0.40
2019-04-26T03:41:14.499Z,0.50
2019-04-26T03:42:14.499Z,0.40
2019-04-26T03:43:14.500Z,0.40
2019-04-26T03:44:14.469Z,0.40
2019-04-26T03:45:14.461Z,0.50
2019-04-26T03:46:14.460Z,0.50
2019-04-26T03:47:14.449Z,0.60
2019-04-26T03:48:14.458Z,0.40
2019-04-26T03:49:14.446Z,0.40
2019-04-26T03:50:14.421Z,0.40
2019-04-26T03:51:14.396Z,0.70
2019-04-26T03:52:14.407Z,0.60
2019-04-26T03:53:14.366Z,0.50
2019-04-26T03:54:14.371Z,0.40
2019-04-26T03:55:14.368Z,0.40
2019-04-26T03:56:14.346Z,0.40
2019-04-26T03:57:14.340Z,0.50
2019-04-26T03:58:14.309Z,0.50
2019-04-26T03:59:14.306Z,0.40
2019-04-26T04:00:14.289Z,0.50
2019-04-26T04:01:14.292Z,0.30
2019-04-26T04:02:14.306Z,0.50
2019-04-26T04:03:14.261Z,0.50
2019-04-26T04:04:14.245Z,0.50
2019-04-26T04:05:14.262Z,0.70
2019-04-26T04:06:14.223Z,0.40
2019-04-26T04:07:14.253Z,0.50
2019-04-26T04:08:14.201Z,0.40
2019-04-26T04:09:17.867Z,0.60
2019-04-26T04:10:14.175Z,0.40
2019-04-26T04:11:14.225Z,0.40
2019-04-26T04:12:14.172Z,0.40
2019-04-26T04:13:14.147Z,0.40
2019-04-26T04:14:14.252Z,0.40
2019-04-26T04:15:14.148Z,0.40
2019-04-26T04:16:14.192Z,0.50
2019-04-26T04:17:14.101Z,0.50
2019-04-26T04:18:14.095Z,0.30
2019-04-26T04:19:14.089Z,0.40
2019-04-26T04:20:14.070Z,0.60
2019-04-26T04:21:14.067Z,0.50
2019-04-26T04:22:14.070Z,0.30
2019-04-26T04:23:14.078Z,0.40
2019-04-26T04:24:14.026Z,0.40
2019-04-26T04:25:14.017Z,0.40
2019-04-26T04:26:14.011Z,0.30
2019-04-26T04:27:14.047Z,0.40
2019-04-26T04:28:13.996Z,0.40
2019-04-26T04:29:13.968Z,0.30
2019-04-26T04:30:14.017Z,0.50
2019-04-26T04:31:13.968Z,0.60
2019-04-26T04:32:13.938Z,0.40
2019-04-26T04:33:13.958Z,0.70
2019-04-26T04:34:13.918Z,0.40
2019-04-26T04:35:13.913Z,0.40
2019-04-26T04:36:13.905Z,0.40
2019-04-26T04:37:13.885Z,0.50
2019-04-26T04:38:13.893Z,0.40
2019-04-26T04:39:13.859Z,0.70
2019-04-26T04:40:13.869Z,0.50
2019-04-26T04:41:13.839Z,0.60
2019-04-26T04:42:13.826Z,0.50
2019-04-26T04:43:13.867Z,0.60
2019-04-26T04:44:13.812Z,0.50
2019-04-26T04:45:13.787Z,0.60
2019-04-26T04:46:13.901Z,0.60
2019-04-26T04:47:23.620Z,0.40
2019-04-26T04:48:14.770Z,0.60
2019-04-26T04:49:13.742Z,0.50
2019-04-26T04:50:13.746Z,0.50
2019-04-26T04:51:13.737Z,1.00
2019-04-26T04:52:13.712Z,0.50
2019-04-26T04:53:13.725Z,0.50
2019-04-26T04:54:13.684Z,0.70
2019-04-26T04:55:13.673Z,0.90
2019-04-26T04:56:13.712Z,0.70
2019-04-26T04:57:13.657Z,0.60
2019-04-26T04:58:13.643Z,0.80
2019-04-26T04:59:13.646Z,0.60
2019-04-26T05:00:13.646Z,0.70
2019-04-26T05:01:13.608Z,0.60
2019-04-26T05:02:13.613Z,0.60
2019-04-26T05:03:13.636Z,0.60
2019-04-26T05:04:13.582Z,0.70
2019-04-26T05:05:13.564Z,1.20
2019-04-26T05:06:13.589Z,0.80
2019-04-26T05:07:13.553Z,0.60
2019-04-26T05:08:13.525Z,0.60
2019-04-26T05:09:13.525Z,0.90
2019-04-26T05:10:13.514Z,0.50
2019-04-26T05:11:13.500Z,1.00
2019-04-26T05:12:13.495Z,0.70
2019-04-26T05:13:13.489Z,0.60
2019-04-26T05:14:13.461Z,0.60
2019-04-26T05:15:13.456Z,0.50
2019-04-26T05:16:13.463Z,0.70
2019-04-26T05:17:13.449Z,0.50
2019-04-26T05:18:13.421Z,0.90
2019-04-26T05:19:13.429Z,0.80
2019-04-26T05:20:13.394Z,0.60
2019-04-26T05:21:13.382Z,0.90
2019-04-26T05:22:13.373Z,0.70
2019-04-26T05:23:13.413Z,0.70
2019-04-26T05:24:13.367Z,1.00
2019-04-26T05:25:13.354Z,0.90
2019-04-26T05:26:13.335Z,0.60
2019-04-26T05:27:13.332Z,0.90
2019-04-26T05:28:13.303Z,0.80
2019-04-26T05:29:13.322Z,0.80
2019-04-26T05:30:13.335Z,0.70
2019-04-26T05:31:13.280Z,0.50
2019-04-26T05:32:13.259Z,0.70
2019-04-26T05:33:13.252Z,0.60
2019-04-26T05:34:13.249Z,0.80
2019-04-26T05:35:13.252Z,0.80
2019-04-26T05:36:13.215Z,0.70
2019-04-26T05:37:13.248Z,0.60
2019-04-26T05:38:18.522Z,0.50
2019-04-26T05:39:14.188Z,0.60
2019-04-26T05:40:13.174Z,0.90
2019-04-26T05:41:13.174Z,0.70
2019-04-26T05:42:13.177Z,0.60
2019-04-26T05:43:13.141Z,0.80
2019-04-26T05:44:13.141Z,0.70
2019-04-26T05:45:13.116Z,0.80
2019-04-26T05:46:13.129Z,0.70
2019-04-26T05:47:13.098Z,0.50
2019-04-26T05:48:13.088Z,0.80
2019-04-26T05:49:13.083Z,0.80
2019-04-26T05:50:13.090Z,0.60
2019-04-26T05:51:13.054Z,0.70
2019-04-26T05:52:13.708Z,1.20
2019-04-26T05:53:13.039Z,0.70
2019-04-26T05:54:13.022Z,0.70
2019-04-26T05:55:13.015Z,0.70
2019-04-26T05:56:13.012Z,0.60
2019-04-26T05:57:12.984Z,0.80
2019-04-26T05:58:13.001Z,0.80
2019-04-26T05:59:12.978Z,0.80
2019-04-26T06:00:12.949Z,0.70
2019-04-26T06:01:12.939Z,0.80
2019-04-26T06:02:12.967Z,0.70
2019-04-26T06:03:12.928Z,0.90
2019-04-26T06:04:12.906Z,0.70
2019-04-26T06:05:12.894Z,0.70
2019-04-26T06:06:12.889Z,0.70
2019-04-26T06:07:12.898Z,0.60
2019-04-26T06:08:12.895Z,0.40
2019-04-26T06:09:12.852Z,0.70
2019-04-26T06:10:12.883Z,0.90
2019-04-26T06:11:12.846Z,0.80
2019-04-26T06:12:12.824Z,0.70
2019-04-26T06:13:12.813Z,0.60
2019-04-26T06:14:12.812Z,0.60
2019-04-26T06:15:12.788Z,0.80
2019-04-26T06:16:12.771Z,0.90
2019-04-26T06:17:12.777Z,0.60
2019-04-26T06:18:12.768Z,0.90
2019-04-26T06:19:12.770Z,0.60
2019-04-26T06:20:22.213Z,1.00
2019-04-26T06:21:13.724Z,0.50
2019-04-26T06:22:12.732Z,0.40
2019-04-26T06:23:12.697Z,0.90
2019-04-26T06:24:12.731Z,0.80
2019-04-26T06:25:12.692Z,0.50
2019-04-26T06:26:12.662Z,0.90
2019-04-26T06:27:14.241Z,0.80
2019-04-26T06:28:12.646Z,0.70
2019-04-26T06:29:12.658Z,0.70
2019-04-26T06:30:12.647Z,0.70
2019-04-26T06:31:12.615Z,0.70
2019-04-26T06:32:12.608Z,0.80
2019-04-26T06:33:12.590Z,0.80
2019-04-26T06:34:12.572Z,0.90
2019-04-26T06:35:12.623Z,0.80
2019-04-26T06:36:12.648Z,0.70
2019-04-26T06:37:12.544Z,0.80
2019-04-26T06:38:12.531Z,0.90
2019-04-26T06:39:12.544Z,0.50
2019-04-26T06:40:12.507Z,0.90
2019-04-26T06:41:12.529Z,0.70
2019-04-26T06:42:12.485Z,0.90
2019-04-26T06:43:12.489Z,0.80
2019-04-26T06:44:12.477Z,0.60
2019-04-26T06:45:12.454Z,0.60
2019-04-26T06:46:12.453Z,0.70
2019-04-26T06:47:12.457Z,0.70
2019-04-26T06:48:12.422Z,0.80
2019-04-26T06:49:12.423Z,0.60
2019-04-26T06:50:12.424Z,0.80
2019-04-26T06:51:23.551Z,0.50
2019-04-26T06:52:13.407Z,0.80
2019-04-26T06:53:12.376Z,0.60
2019-04-26T06:54:12.378Z,0.80
2019-04-26T06:55:12.339Z,0.70
2019-04-26T06:56:12.337Z,0.70
2019-04-26T06:57:15.165Z,0.70
2019-04-26T06:58:13.105Z,0.80
2019-04-26T06:59:12.300Z,0.80
2019-04-26T07:00:12.294Z,1.00
2019-04-26T07:01:12.291Z,0.70
2019-04-26T07:02:12.266Z,0.50
2019-04-26T07:03:12.285Z,0.80
2019-04-26T07:04:12.703Z,0.90
2019-04-26T07:05:15.074Z,0.60
2019-04-26T07:06:12.268Z,0.70
2019-04-26T07:07:13.340Z,0.90
2019-04-26T07:08:12.713Z,0.70
2019-04-26T07:09:12.189Z,0.70
2019-04-26T07:10:12.176Z,0.50
2019-04-26T07:11:12.204Z,1.00
2019-04-26T07:12:12.155Z,0.70
2019-04-26T07:13:14.754Z,0.60
2019-04-26T07:14:12.153Z,0.60
2019-04-26T07:15:12.201Z,0.60
2019-04-26T07:16:22.458Z,0.60
2019-04-26T07:17:13.098Z,0.70
2019-04-26T07:18:12.828Z,0.70
2019-04-26T07:19:13.252Z,0.80
2019-04-26T07:20:12.091Z,0.80
2019-04-26T07:21:12.064Z,0.70
2019-04-26T07:22:12.047Z,0.60
2019-04-26T07:23:12.665Z,0.70
2019-04-26T07:24:12.079Z,0.70
2019-04-26T07:25:12.054Z,0.60
2019-04-26T07:26:12.005Z,0.50
2019-04-26T07:27:13.017Z,0.60
2019-04-26T07:28:12.471Z,0.60
2019-04-26T07:29:12.001Z,0.90
2019-04-26T07:30:12.218Z,0.50
2019-04-26T07:31:13.059Z,0.50
2019-04-26T07:32:11.940Z,0.50
2019-04-26T07:33:12.644Z,0.60
2019-04-26T07:34:11.945Z,0.80
2019-04-26T07:35:12.948Z,0.70
2019-04-26T07:36:12.075Z,0.50
2019-04-26T07:37:11.938Z,0.60
2019-04-26T07:38:11.875Z,1.10
2019-04-26T07:39:19.519Z,0.40
2019-04-26T07:40:12.851Z,0.80
2019-04-26T07:41:11.892Z,0.50
2019-04-26T07:42:11.845Z,0.70
2019-04-26T07:43:12.546Z,0.50
2019-04-26T07:44:11.892Z,0.50
2019-04-26T07:45:12.405Z,0.60
2019-04-26T07:46:12.678Z,0.60
2019-04-26T07:47:14.281Z,0.50
2019-04-26T07:48:11.765Z,0.60
2019-04-26T07:49:12.530Z,0.40
2019-04-26T07:50:11.747Z,0.60
2019-04-26T07:51:11.738Z,0.60
2019-04-26T07:52:12.654Z,0.50
2019-04-26T07:53:11.715Z,0.60
2019-04-26T07:54:11.741Z,0.40
2019-04-26T07:55:12.807Z,0.70
2019-04-26T07:56:11.684Z,0.50
2019-04-26T07:57:12.837Z,0.80
2019-04-26T07:58:11.658Z,0.50
2019-04-26T07:59:12.770Z,0.50
2019-04-26T08:00:11.650Z,0.70
2019-04-26T08:01:11.961Z,0.70
2019-04-26T08:02:11.636Z,0.60
2019-04-26T08:03:11.621Z,0.60
2019-04-26T08:04:11.601Z,0.60
2019-04-26T08:05:11.607Z,0.60
2019-04-26T08:06:11.620Z,0.60
2019-04-26T08:07:11.563Z,0.60
2019-04-26T08:08:11.591Z,0.50
2019-04-26T08:09:25.091Z,0.50
2019-04-26T08:10:12.567Z,0.40
2019-04-26T08:11:11.534Z,0.50
2019-04-26T08:12:12.201Z,0.50
2019-04-26T08:13:11.495Z,0.50
2019-04-26T08:14:12.520Z,0.60
2019-04-26T08:15:11.557Z,0.50
2019-04-26T08:16:12.363Z,0.60
2019-04-26T08:17:12.511Z,0.70
2019-04-26T08:18:11.441Z,0.60
2019-04-26T08:19:12.593Z,0.50
2019-04-26T08:20:12.594Z,0.60
2019-04-26T08:21:14.402Z,0.50
2019-04-26T08:22:20.435Z,0.40
2019-04-26T08:23:35.100Z,0.50
2019-04-26T08:24:12.380Z,0.60
2019-04-26T08:25:12.424Z,0.60
2019-04-26T08:26:11.353Z,0.50
2019-04-26T08:27:18.701Z,0.60
2019-04-26T08:28:12.348Z,0.70
2019-04-26T08:29:11.336Z,0.90
2019-04-26T08:30:14.390Z,0.40
2019-04-26T08:31:11.301Z,0.70
2019-04-26T08:32:11.433Z,0.60
2019-04-26T08:33:13.059Z,0.60
2019-04-26T08:34:12.333Z,0.60
2019-04-26T08:35:16.102Z,0.50
2019-04-26T08:36:12.734Z,0.50
2019-04-26T08:37:11.242Z,0.80
2019-04-26T08:38:15.975Z,0.80
2019-04-26T08:39:13.024Z,0.50
2019-04-26T08:40:16.314Z,0.50
2019-04-26T08:41:13.371Z,0.50
2019-04-26T08:42:18.150Z,0.60
2019-04-26T08:43:12.195Z,0.70
2019-04-26T08:44:11.297Z,0.50
2019-04-26T08:45:13.549Z,0.90
2019-04-26T08:46:12.978Z,0.60
2019-04-26T08:47:24.382Z,0.60
2019-04-26T08:48:12.266Z,0.60
2019-04-26T08:49:11.199Z,0.70
2019-04-26T08:50:13.341Z,0.50
2019-04-26T08:51:11.086Z,0.60
2019-04-26T08:52:14.674Z,0.70
2019-04-26T08:53:11.073Z,0.70
2019-04-26T08:54:11.066Z,0.70
2019-04-26T08:55:11.043Z,0.70
2019-04-26T08:56:11.666Z,0.90
2019-04-26T08:57:11.033Z,0.50
2019-04-26T08:58:11.010Z,0.90
2019-04-26T08:59:11.021Z,0.70
2019-04-26T09:00:11.001Z,0.50
2019-04-26T09:01:10.978Z,0.70
2019-04-26T09:02:10.968Z,0.70
2019-04-26T09:03:12.036Z,0.70
2019-04-26T09:04:10.947Z,0.60
2019-04-26T09:05:10.954Z,0.90
2019-04-26T09:06:10.924Z,0.80
2019-04-26T09:07:10.915Z,1.10
2019-04-26T09:08:10.917Z,0.80
2019-04-26T09:09:10.894Z,0.80
2019-04-26T09:10:11.478Z,0.90
2019-04-26T09:11:22.782Z,0.80
2019-04-26T09:12:22.516Z,0.70
2019-04-26T09:13:11.849Z,0.90
2019-04-26T09:14:10.859Z,0.80
2019-04-26T09:15:10.847Z,0.70
2019-04-26T09:16:10.877Z,1.00
2019-04-26T09:17:10.806Z,0.90
2019-04-26T09:18:10.797Z,0.60
2019-04-26T09:19:10.815Z,0.80
2019-04-26T09:20:10.800Z,0.70
2019-04-26T09:21:13.429Z,0.80
2019-04-26T09:22:13.386Z,0.80
2019-04-26T09:23:10.749Z,0.70
2019-04-26T09:24:10.737Z,0.90
2019-04-26T09:25:10.739Z,0.60
2019-04-26T09:26:12.495Z,0.90
2019-04-26T09:27:10.725Z,0.70
2019-04-26T09:28:10.689Z,0.90
2019-04-26T09:29:10.703Z,0.80
2019-04-26T09:30:10.670Z,1.20
2019-04-26T09:31:10.668Z,0.70
2019-04-26T09:32:10.652Z,0.40
2019-04-26T09:33:10.674Z,0.80
2019-04-26T09:34:11.476Z,0.60
2019-04-26T09:35:11.320Z,0.70
2019-04-26T09:36:10.609Z,0.60
2019-04-26T09:37:10.610Z,0.70
2019-04-26T09:38:10.602Z,0.70
2019-04-26T09:39:10.577Z,0.90
2019-04-26T09:40:10.981Z,0.80
2019-04-26T09:41:10.566Z,0.80
2019-04-26T09:42:10.564Z,0.70
2019-04-26T09:43:14.850Z,0.80
2019-04-26T09:44:11.524Z,1.10
2019-04-26T09:45:10.513Z,0.90
2019-04-26T09:46:10.552Z,0.90
2019-04-26T09:47:10.495Z,0.90
2019-04-26T09:48:10.478Z,0.70
2019-04-26T09:49:10.467Z,0.90
2019-04-26T09:50:11.202Z,1.00
2019-04-26T09:51:10.449Z,1.10
2019-04-26T09:52:10.463Z,0.70
2019-04-26T09:53:10.431Z,1.10
2019-04-26T09:54:10.425Z,0.80
2019-04-26T09:55:10.402Z,1.00
2019-04-26T09:56:10.393Z,1.10
2019-04-26T09:57:10.415Z,1.10
2019-04-26T09:58:10.387Z,0.90
2019-04-26T09:59:10.361Z,1.00
2019-04-26T10:00:13.988Z,1.00
2019-04-26T10:01:10.340Z,1.10
2019-04-26T10:02:10.326Z,1.00
2019-04-26T10:03:10.783Z,1.10
2019-04-26T10:04:10.314Z,1.00
2019-04-26T10:05:12.082Z,0.90
2019-04-26T10:06:10.293Z,1.10
2019-04-26T10:07:10.285Z,1.10
2019-04-26T10:08:13.021Z,1.10
2019-04-26T10:09:10.259Z,1.00
2019-04-26T10:10:22.109Z,1.20
2019-04-26T10:11:11.240Z,1.40
2019-04-26T10:12:10.248Z,1.40
2019-04-26T10:13:10.208Z,1.00
2019-04-26T10:14:10.197Z,1.20
2019-04-26T10:15:10.203Z,1.00
2019-04-26T10:16:10.176Z,1.00
2019-04-26T10:17:11.542Z,1.30
2019-04-26T10:18:10.160Z,1.10
2019-04-26T10:19:10.148Z,1.10
2019-04-26T10:20:10.148Z,1.00
2019-04-26T10:21:10.120Z,1.30
2019-04-26T10:22:10.116Z,1.20
2019-04-26T10:23:10.128Z,1.00
2019-04-26T10:24:10.092Z,1.10
2019-04-26T10:25:16.521Z,1.30
2019-04-26T10:26:11.077Z,1.20
2019-04-26T10:27:10.063Z,1.10
2019-04-26T10:28:11.763Z,1.40
2019-04-26T10:29:11.048Z,1.40
2019-04-26T10:30:10.056Z,1.00
2019-04-26T10:31:13.476Z,1.10
2019-04-26T10:32:10.026Z,1.00
2019-04-26T10:33:10.003Z,1.10
2019-04-26T10:34:11.854Z,1.20
2019-04-26T10:35:09.995Z,1.30
2019-04-26T10:36:09.977Z,1.10
2019-04-26T10:37:09.947Z,1.00
2019-04-26T10:38:09.976Z,1.10
2019-04-26T10:39:09.929Z,1.00
2019-04-26T10:40:09.931Z,1.20
2019-04-26T10:41:09.927Z,1.10
2019-04-26T10:42:09.891Z,1.60
2019-04-26T10:43:09.936Z,1.40
2019-04-26T10:44:09.870Z,0.90
2019-04-26T10:45:10.415Z,1.30
2019-04-26T10:46:09.862Z,0.90
2019-04-26T10:47:09.879Z,1.10
2019-04-26T10:48:13.863Z,1.10
2019-04-26T10:49:12.093Z,1.20
2019-04-26T10:50:09.851Z,1.10
2019-04-26T10:51:09.795Z,1.30
2019-04-26T10:52:11.889Z,1.40
2019-04-26T10:54:24.514Z,1.40
2019-04-26T10:55:24.489Z,1.40
2019-04-26T10:56:25.339Z,1.40
2019-04-26T10:57:24.477Z,1.30
2019-04-26T10:58:24.491Z,1.30
2019-04-26T10:59:24.455Z,1.40
2019-04-26T11:00:24.454Z,1.10
2019-04-26T11:01:24.455Z,1.20
2019-04-26T11:02:33.078Z,1.10
2019-04-26T11:03:24.452Z,1.20
2019-04-26T11:04:25.868Z,1.30
2019-04-26T11:05:24.379Z,1.00
2019-04-26T11:06:27.939Z,1.10
2019-04-26T11:07:24.370Z,1.20
2019-04-26T11:08:24.363Z,1.10
2019-04-26T11:09:24.335Z,1.40
2019-04-26T11:10:24.578Z,1.40
2019-04-26T11:11:24.337Z,1.00
2019-04-26T11:12:24.300Z,1.10
2019-04-26T11:13:24.337Z,1.40
2019-04-26T11:14:24.291Z,1.40
2019-04-26T11:15:24.290Z,1.40
2019-04-26T11:16:24.258Z,1.60
2019-04-26T11:17:24.245Z,1.60
2019-04-26T11:18:27.713Z,1.40
2019-04-26T11:19:24.254Z,1.50
2019-04-26T11:20:24.211Z,1.40
2019-04-26T11:21:24.222Z,1.50
2019-04-26T11:22:29.247Z,1.50
2019-04-26T11:23:25.250Z,1.70
2019-04-26T11:24:24.178Z,1.80
2019-04-26T11:25:24.715Z,1.50
2019-04-26T11:26:24.150Z,1.70
2019-04-26T11:27:24.134Z,1.50
2019-04-26T11:28:24.143Z,1.50
2019-04-26T11:29:24.973Z,1.50
2019-04-26T11:30:24.117Z,1.40
2019-04-26T11:31:27.834Z,1.40
2019-04-26T11:32:25.077Z,1.60
2019-04-26T11:33:24.089Z,1.40
2019-04-26T11:34:25.191Z,1.80
2019-04-26T11:35:24.062Z,1.50
2019-04-26T11:36:24.124Z,1.50
2019-04-26T11:37:24.023Z,1.40
2019-04-26T11:38:27.018Z,2.00
2019-04-26T11:39:28.013Z,1.30
2019-04-26T11:40:24.007Z,1.90
2019-04-26T11:41:24.140Z,1.60
2019-04-26T11:42:24.031Z,1.50
2019-04-26T11:43:24.012Z,1.80
2019-04-26T11:44:27.557Z,1.20
2019-04-26T11:45:23.933Z,1.50
2019-04-26T11:46:29.105Z,1.80
2019-04-26T11:47:24.955Z,1.70
2019-04-26T11:48:25.540Z,1.70
2019-04-26T11:49:24.916Z,1.90
2019-04-26T11:50:23.904Z,1.70
2019-04-26T11:51:27.540Z,2.00
2019-04-26T11:52:23.884Z,2.20
2019-04-26T11:53:23.857Z,2.10
2019-04-26T11:54:23.850Z,2.00
2019-04-26T11:55:25.335Z,1.70
2019-04-26T11:56:24.877Z,2.00
2019-04-26T11:57:23.819Z,1.80
2019-04-26T11:58:23.875Z,2.00
2019-04-26T11:59:27.001Z,1.90
2019-04-26T12:00:27.422Z,2.00
2019-04-26T12:01:23.780Z,2.40
2019-04-26T12:02:23.745Z,2.00
2019-04-26T12:03:24.879Z,2.00
2019-04-26T12:04:23.736Z,2.00
2019-04-26T12:05:23.737Z,2.20
2019-04-26T12:06:23.721Z,2.30
2019-04-26T12:07:23.698Z,2.30
2019-04-26T12:08:23.699Z,2.20
2019-04-26T12:09:23.742Z,1.90
2019-04-26T12:10:23.665Z,1.70
2019-04-26T12:11:31.536Z,2.00
2019-04-26T12:12:24.630Z,2.00
2019-04-26T12:13:25.016Z,2.10
2019-04-26T12:14:23.647Z,2.00
2019-04-26T12:15:30.139Z,1.70
2019-04-26T12:16:24.601Z,2.10
2019-04-26T12:17:23.585Z,1.80
2019-04-26T12:18:23.673Z,2.00
2019-04-26T12:19:23.585Z,1.90
2019-04-26T12:20:26.819Z,1.80
2019-04-26T12:21:23.531Z,1.70
2019-04-26T12:22:23.520Z,2.00
2019-04-26T12:23:23.532Z,1.70
2019-04-26T12:24:25.363Z,1.90
2019-04-26T12:25:24.520Z,2.00
2019-04-26T12:26:23.504Z,1.90
2019-04-26T12:27:26.476Z,1.90
2019-04-26T12:28:24.473Z,1.40
2019-04-26T12:29:23.449Z,2.10
2019-04-26T12:30:26.578Z,2.20
2019-04-26T12:31:23.427Z,2.10
2019-04-26T12:32:23.423Z,2.30
2019-04-26T12:33:23.397Z,2.00
2019-04-26T12:34:23.388Z,2.50
2019-04-26T12:35:23.401Z,2.10
2019-04-26T12:36:23.365Z,2.60
2019-04-26T12:37:23.354Z,2.20
2019-04-26T12:38:24.134Z,1.90
2019-04-26T12:39:23.344Z,2.20
2019-04-26T12:40:23.341Z,1.80
2019-04-26T12:41:39.507Z,2.20
2019-04-26T12:42:24.299Z,2.10
2019-04-26T12:43:24.593Z,2.10
2019-04-26T12:44:23.304Z,2.10
2019-04-26T12:45:23.268Z,1.70
2019-04-26T12:46:27.263Z,2.00
2019-04-26T12:47:24.245Z,2.20
2019-04-26T12:48:23.232Z,2.50
2019-04-26T12:49:24.241Z,2.10
2019-04-26T12:50:23.209Z,2.10
2019-04-26T12:51:23.215Z,2.20
2019-04-26T12:52:23.215Z,2.20
2019-04-26T12:53:26.681Z,1.70
2019-04-26T12:54:24.160Z,1.70
2019-04-26T12:55:23.153Z,1.60
2019-04-26T12:56:26.685Z,2.10
2019-04-26T12:57:24.160Z,1.70
2019-04-26T12:58:23.140Z,2.00
2019-04-26T12:59:26.616Z,1.60
2019-04-26T13:00:23.104Z,1.60
2019-04-26T13:01:23.097Z,1.60
2019-04-26T13:02:23.074Z,1.80
2019-04-26T13:03:24.905Z,1.60
2019-04-26T13:04:35.472Z,1.50
2019-04-26T13:05:24.082Z,1.80
2019-04-26T13:06:23.034Z,2.10
2019-04-26T13:07:24.295Z,1.50
2019-04-26T13:08:23.042Z,1.50
2019-04-26T13:09:26.631Z,1.60
2019-04-26T13:10:24.010Z,1.60
2019-04-26T13:11:22.997Z,1.50
2019-04-26T13:12:25.969Z,1.80
2019-04-26T13:13:23.961Z,1.50
2019-04-26T13:14:22.949Z,1.90
2019-04-26T13:15:22.983Z,1.60
2019-04-26T13:16:26.248Z,1.70
2019-04-26T13:17:22.906Z,1.60
2019-04-26T13:18:22.906Z,1.60
2019-04-26T13:19:22.889Z,1.80